KPLN/PLN METAR and TAF weather

Enter ICAO airport designator
Station Type Date Time Source
KPLN METAR 2019/12/10 19:54 UTC NOAA

KPLN 101954Z AUTO 28003KT 3SM -SN BKN035 OVC043 M07/M11 A2998 RMK AO2 SNB13E31B50 SLP165 P0000 T10671106


Station Type Date Time Source
KPLN Decoded METAR 2019/12/10 19:54 UTC NOAA

PELLSTON REGIONAL AIRPORT, MI, United States (KPLN) 45-34N 084-48W 217M
Dec 10, 2019 - 02:54 PM EST / 2019.12.10 1954 UTC
Wind: from the W (280 degrees) at 3 MPH (3 KT):0
Visibility: 3 mile(s):0
Sky conditions: overcast
Weather: light snow
Precipitation last hour: A trace
Temperature: 19.9 F (-6.7 C)
Dew Point: 12.9 F (-10.6 C)
Relative Humidity: 73%
Pressure (altimeter): 29.98 in. Hg (1015 hPa)
ob: KPLN 101954Z AUTO 28003KT 3SM -SN BKN035 OVC043 M07/M11 A2998 RMK AO2 SNB13E31B50 SLP165 P0000 T10671106
cycle: 20

Station Type Date Time Source
KPLN TAF 2019/12/10 18:30 UTC NOAA

TAF KPLN 101727Z 1018/1118 33007KT P6SM FEW028 OVC040
FM102100 23005KT 3SM -SHSN OVC009
FM110000 27010G19KT 3SM -SHSN OVC013
FM111100 27015G25KT 5SM -SHSN BLSN OVC009
FM111200 27013G24KT P6SM OVC011
FM111700 28015G25KT P6SM BKN025

Example: see airport list